createdAt,value
2017-10-27T00:03:18.129Z,100901
2017-10-27T00:08:21.318Z,100884
2017-10-27T00:13:24.504Z,100877
2017-10-27T00:18:28.543Z,100863
2017-10-27T00:23:32.600Z,100858
2017-10-27T00:28:35.801Z,100879
2017-10-27T00:33:39.039Z,100883
2017-10-27T00:38:42.235Z,100880
2017-10-27T00:43:45.434Z,100870
2017-10-27T00:48:48.654Z,100870
2017-10-27T00:53:51.853Z,100865
2017-10-27T00:58:55.057Z,100860
2017-10-27T01:03:58.237Z,100850
2017-10-27T01:09:01.453Z,100861
2017-10-27T01:14:04.645Z,100854
2017-10-27T01:19:07.869Z,100846
2017-10-27T01:24:11.049Z,100837
2017-10-27T01:29:14.238Z,100833
2017-10-27T01:34:17.421Z,100836
2017-10-27T01:39:20.591Z,100831
2017-10-27T01:44:23.824Z,100825
2017-10-27T01:49:27.015Z,100832
2017-10-27T01:54:30.472Z,100824
2017-10-27T01:59:34.430Z,100819
2017-10-27T02:04:37.606Z,100812
2017-10-27T02:09:40.766Z,100818
2017-10-27T02:14:43.973Z,100806
2017-10-27T02:19:47.179Z,100817
2017-10-27T02:24:50.439Z,100824
2017-10-27T02:29:53.735Z,100818
2017-10-27T02:34:57.011Z,100800
2017-10-27T02:40:00.200Z,100812
2017-10-27T02:45:03.379Z,100804
2017-10-27T02:50:06.719Z,100817
2017-10-27T02:55:09.905Z,100818
2017-10-27T03:00:13.059Z,100819
2017-10-27T03:05:16.992Z,100821
2017-10-27T03:10:20.946Z,100825
2017-10-27T03:15:24.140Z,100816
2017-10-27T03:20:28.066Z,100805
2017-10-27T03:25:31.309Z,100820
2017-10-27T03:30:34.497Z,100819
2017-10-27T03:35:37.699Z,100814
2017-10-27T03:40:40.890Z,100820
2017-10-27T03:45:44.102Z,100824
2017-10-27T03:50:47.267Z,100828
2017-10-27T03:55:51.201Z,100832
2017-10-27T04:00:55.173Z,100836
2017-10-27T04:05:58.430Z,100832
2017-10-27T04:11:02.373Z,100837
2017-10-27T04:16:05.586Z,100849
2017-10-27T04:21:08.806Z,100851
2017-10-27T04:26:12.001Z,100857
2017-10-27T04:31:15.230Z,100861
2017-10-27T04:36:18.514Z,100855
2017-10-27T04:41:21.697Z,100863
2017-10-27T04:46:25.758Z,100858
2017-10-27T04:51:28.980Z,100883
2017-10-27T04:56:32.234Z,100908
2017-10-27T05:01:36.230Z,100929
2017-10-27T05:06:39.429Z,100919
2017-10-27T05:11:42.628Z,100924
2017-10-27T05:16:51.408Z,100922
2017-10-27T05:22:00.870Z,100913
2017-10-27T05:27:04.831Z,100923
2017-10-27T05:32:08.056Z,100910
2017-10-27T05:37:11.239Z,100911
2017-10-27T05:42:14.411Z,100902
2017-10-27T05:47:18.357Z,100928
2017-10-27T05:52:21.556Z,100914
2017-10-27T05:57:24.733Z,100923
2017-10-27T06:02:28.694Z,100930
2017-10-27T06:07:31.882Z,100928
2017-10-27T06:12:35.075Z,100939
2017-10-27T06:17:39.026Z,100936
2017-10-27T06:22:42.248Z,100946
2017-10-27T06:27:45.421Z,100959
2017-10-27T06:32:48.614Z,100981
2017-10-27T06:37:53.207Z,100986
2017-10-27T06:42:56.409Z,100999
2017-10-27T06:47:59.597Z,101016
2017-10-27T06:53:02.902Z,101014
2017-10-27T06:58:06.115Z,101024
2017-10-27T07:03:09.337Z,101038
2017-10-27T07:08:12.547Z,101036
2017-10-27T07:13:15.765Z,101048
2017-10-27T07:18:19.050Z,101060
2017-10-27T07:23:22.267Z,101067
2017-10-27T07:28:25.458Z,101072
2017-10-27T07:33:28.624Z,101078
2017-10-27T07:38:32.565Z,101072
2017-10-27T07:43:35.840Z,101078
2017-10-27T07:48:39.113Z,101084
2017-10-27T07:53:42.307Z,101104
2017-10-27T07:58:45.489Z,101104
2017-10-27T08:03:48.725Z,101117
2017-10-27T08:08:51.920Z,101130
2017-10-27T08:13:55.097Z,101126
2017-10-27T08:18:59.159Z,101136
2017-10-27T08:24:02.341Z,101147
2017-10-27T08:29:07.313Z,101163
2017-10-27T08:34:10.532Z,101168
2017-10-27T08:39:13.714Z,101172
2017-10-27T08:44:16.919Z,101174
2017-10-27T08:49:20.162Z,101175
2017-10-27T08:54:23.405Z,101175
2017-10-27T08:59:26.584Z,101176
2017-10-27T09:04:29.804Z,101197
2017-10-27T09:09:33.762Z,101215
2017-10-27T09:14:41.801Z,101216
2017-10-27T09:19:44.990Z,101227
2017-10-27T09:24:49.963Z,101230
2017-10-27T09:29:53.259Z,101225
2017-10-27T09:35:02.254Z,101236
2017-10-27T09:40:05.413Z,101233
2017-10-27T09:45:08.593Z,101237
2017-10-27T09:50:11.788Z,101249
2017-10-27T09:55:15.915Z,101260
2017-10-27T10:00:19.856Z,101268
2017-10-27T10:05:23.148Z,101290
2017-10-27T10:10:27.106Z,101306
2017-10-27T10:15:31.229Z,101303
2017-10-27T10:20:37.337Z,101310
2017-10-27T10:25:45.020Z,101314
2017-10-27T10:30:49.144Z,101329
2017-10-27T10:35:57.108Z,101351
2017-10-27T10:41:00.263Z,101342
2017-10-27T10:46:04.406Z,101351
2017-10-27T10:51:09.790Z,101356
2017-10-27T10:56:14.200Z,101359
2017-10-27T11:01:25.900Z,101365
2017-10-27T11:06:30.787Z,101369
2017-10-27T11:11:37.362Z,101378
2017-10-27T11:16:40.562Z,101378
2017-10-27T11:21:47.312Z,101398
2017-10-27T11:27:03.059Z,101386
2017-10-27T11:32:06.251Z,101374
2017-10-27T11:37:09.447Z,101374
2017-10-27T11:42:12.603Z,101370
2017-10-27T11:47:16.546Z,101379
2017-10-27T11:52:19.760Z,101398
2017-10-27T11:57:23.073Z,101399
2017-10-27T12:02:26.297Z,101406
2017-10-27T12:07:29.594Z,101409
2017-10-27T12:12:32.792Z,101425
2017-10-27T12:17:37.691Z,101430
2017-10-27T12:22:45.674Z,101431
2017-10-27T12:27:49.652Z,101427
2017-10-27T12:32:53.589Z,101422
2017-10-27T12:37:59.745Z,101420
2017-10-27T12:43:04.651Z,101421
2017-10-27T12:48:11.468Z,101303
2017-10-27T12:53:14.687Z,101431
2017-10-27T12:58:18.621Z,101430
2017-10-27T13:03:21.835Z,101411
2017-10-27T13:08:25.027Z,101428
2017-10-27T13:13:28.979Z,101422
2017-10-27T13:18:32.183Z,101420
2017-10-27T13:23:35.416Z,101437
2017-10-27T13:28:38.621Z,101437
2017-10-27T13:33:42.062Z,101451
2017-10-27T13:38:45.231Z,101452
2017-10-27T13:43:48.416Z,101455
2017-10-27T13:48:51.619Z,101453
2017-10-27T13:53:54.792Z,101452
2017-10-27T13:58:58.753Z,101463
2017-10-27T14:04:02.130Z,101466
2017-10-27T14:09:06.200Z,101470
2017-10-27T14:14:09.533Z,101478
2017-10-27T14:19:12.740Z,101477
2017-10-27T14:24:15.879Z,101479
2017-10-27T14:29:19.058Z,101487
2017-10-27T14:34:22.208Z,101487
2017-10-27T14:39:25.387Z,101491
2017-10-27T14:44:29.485Z,101504
2017-10-27T14:49:32.691Z,101518
2017-10-27T14:54:35.948Z,101513
2017-10-27T14:59:39.190Z,101512
2017-10-27T15:04:42.424Z,101530
2017-10-27T15:09:45.617Z,101532
2017-10-27T15:14:48.814Z,101535
2017-10-27T15:19:51.982Z,101535
2017-10-27T15:24:55.177Z,101537
2017-10-27T15:29:58.478Z,101532
2017-10-27T15:35:02.434Z,101534
2017-10-27T15:40:05.663Z,101536
2017-10-27T15:45:08.857Z,101555
2017-10-27T15:50:12.018Z,101553
2017-10-27T15:55:15.964Z,101542
2017-10-27T16:00:19.169Z,101568
2017-10-27T16:05:22.370Z,101571
2017-10-27T16:10:25.597Z,101588
2017-10-27T16:15:28.794Z,101606
2017-10-27T16:20:31.978Z,101602
2017-10-27T16:25:35.959Z,101589
2017-10-27T16:30:39.151Z,101584
2017-10-27T16:35:42.407Z,101580
2017-10-27T16:40:46.477Z,101567
2017-10-27T16:45:49.657Z,101574
2017-10-27T16:50:52.874Z,101561
2017-10-27T16:55:56.100Z,101552
2017-10-27T17:00:59.287Z,101556
2017-10-27T17:06:02.489Z,101562
2017-10-27T17:11:05.690Z,101567
2017-10-27T17:16:08.889Z,101591
2017-10-27T17:21:12.106Z,101615
2017-10-27T17:26:15.295Z,101622
2017-10-27T17:31:18.497Z,101631
2017-10-27T17:36:21.763Z,101641
2017-10-27T17:41:24.956Z,101653
2017-10-27T17:46:28.154Z,101648
2017-10-27T17:51:31.467Z,101656
2017-10-27T17:56:34.690Z,101657
2017-10-27T18:01:37.946Z,101633
2017-10-27T18:06:41.919Z,101646
2017-10-27T18:11:45.117Z,101652
2017-10-27T18:16:48.323Z,101647
2017-10-27T18:21:51.533Z,101649
2017-10-27T18:26:54.772Z,101652
2017-10-27T18:31:57.967Z,101653
2017-10-27T18:37:01.205Z,101661
2017-10-27T18:42:04.791Z,101667
2017-10-27T18:47:07.999Z,101675
2017-10-27T18:52:11.221Z,101676
2017-10-27T18:57:15.208Z,101686
2017-10-27T19:02:18.409Z,101685
2017-10-27T19:07:21.600Z,101694
2017-10-27T19:12:24.798Z,101699
2017-10-27T19:17:28.006Z,101709
2017-10-27T19:22:31.248Z,101709
2017-10-27T19:27:34.452Z,101698
2017-10-27T19:32:37.799Z,101705
2017-10-27T19:37:41.861Z,101709
2017-10-27T19:42:45.274Z,101715
2017-10-27T19:47:48.610Z,101712
2017-10-27T19:52:51.880Z,101722
2017-10-27T19:57:55.117Z,101735
2017-10-27T20:02:58.422Z,101741
2017-10-27T20:08:01.667Z,101738
2017-10-27T20:13:05.010Z,101726
2017-10-27T20:18:08.365Z,101721
2017-10-27T20:23:11.591Z,101715
2017-10-27T20:28:15.642Z,101696
2017-10-27T20:33:18.872Z,101685
2017-10-27T20:38:22.090Z,101697
2017-10-27T20:43:25.454Z,101708
2017-10-27T20:48:28.775Z,101710
2017-10-27T20:53:32.005Z,101724
2017-10-27T20:58:35.289Z,101721
2017-10-27T21:03:38.519Z,101712
2017-10-27T21:08:41.774Z,101707
2017-10-27T21:13:44.950Z,101703
2017-10-27T21:18:48.153Z,101705
2017-10-27T21:23:51.344Z,101707
2017-10-27T21:28:54.543Z,101706
2017-10-27T21:33:57.755Z,101711
2017-10-27T21:39:01.006Z,101697
2017-10-27T21:44:04.161Z,101701
2017-10-27T21:49:07.365Z,101711
2017-10-27T21:54:10.520Z,101696
2017-10-27T21:59:13.807Z,101701
2017-10-27T22:04:17.077Z,101707
2017-10-27T22:09:20.357Z,101701
2017-10-27T22:14:23.671Z,101691
2017-10-27T22:19:26.905Z,101680
2017-10-27T22:24:30.149Z,101685
2017-10-27T22:29:33.396Z,101694
2017-10-27T22:34:37.343Z,101690
2017-10-27T22:39:44.318Z,101684
2017-10-27T22:44:47.545Z,101691
2017-10-27T22:49:50.753Z,101692
2017-10-27T22:54:53.964Z,101679
2017-10-27T22:59:57.199Z,101667
2017-10-27T23:05:00.411Z,101653
2017-10-27T23:10:03.585Z,101644
2017-10-27T23:15:06.794Z,101645
2017-10-27T23:20:09.986Z,101663
2017-10-27T23:25:13.229Z,101646
2017-10-27T23:30:16.582Z,101621
2017-10-27T23:35:19.782Z,101624
2017-10-27T23:40:23.724Z,101615
2017-10-27T23:45:26.923Z,101607
2017-10-27T23:50:30.111Z,101602
2017-10-27T23:55:34.046Z,101592
